KMLU/MLU METAR and TAF weather

Enter ICAO airport designator
Station Type Date Time Source
KMLU METAR 2021/03/06 03:53 UTC NOAA

KMLU 060353Z 04012KT 10SM OVC060 11/09 A3016 RMK AO2 SLP212 T01110089


Station Type Date Time Source
KMLU Decoded METAR 2021/03/06 03:53 UTC NOAA

MONROE REGIONAL AIRPORT, LA, United States (KMLU) 32-31N 092-02W 29M
Mar 05, 2021 - 10:53 PM EST / 2021.03.06 0353 UTC
Wind: from the NE (040 degrees) at 14 MPH (12 KT):0
Visibility: 10 mile(s):0
Sky conditions: overcast
Temperature: 52.0 F (11.1 C)
Dew Point: 48.0 F (8.9 C)
Relative Humidity: 86%
Pressure (altimeter): 30.16 in. Hg (1021 hPa)
ob: KMLU 060353Z 04012KT 10SM OVC060 11/09 A3016 RMK AO2 SLP212 T01110089
cycle: 4

Station Type Date Time Source
KMLU TAF 2021/03/05 23:54 UTC NOAA

TAF
AMD KMLU 052252Z 0523/0618 03012KT P6SM VCSH FEW035 FEW070 OVC100
TEMPO 0523/0524 VRB15G25KT 3SM -SHRA OVC035
FM060000 04006KT P6SM VCSH SCT060 OVC090
TEMPO 0600/0604 6SM -RA BKN040 OVC070
FM060400 03010KT P6SM SCT060 BKN090
FM061400 03008KT P6SM FEW250

Example: see airport list